Terminal Aerodrome Forecast
Issued by NWS

Home | Current Version | Previous Version | Text Only | Print | Product List | Glossary On
Versions: 1 2 3 4 5 6 7 8 9 10 11 12 13 14 15 16 17 18 19 20 21 22 23 24 25 26 27 28 29 30
000
FTUS44 KHGX 190520
TAFUTS
TAF
KUTS 190520Z 1906/2006 17004KT P6SM SKC
     FM191100 00000KT P6SM SCT010 BKN018
      TEMPO 1913/1915 FEW020
     FM191500 22007KT P6SM SCT035
     FM192200 18006KT P6SM FEW250
     FM200300 15003KT P6SM SKC=

USA.gov is the U.S. government's official web portal to all federal, state and local government web resources and services.